Terminal Aerodrome Forecast
Issued by NWS

Home | Current Version | Previous Version | Text Only | Print | Product List | Glossary On
Versions: 1 2 3 4 5 6 7 8 9 10 11 12 13 14 15 16 17 18 19 20 21 22 23 24 25 26 27 28 29 30 31 32 33 34 35 36 37 38 39 40 41 42 43 44 45 46
576
FTUS43 KDMX 212325
TAFFOD
TAF
KFOD 212325Z 2200/2224 08015G20KT P6SM SCT006 BKN100
     FM220100 29005KT P6SM VCTS BKN040CB
     FM220700 34005KT P6SM BKN025 BKN070
     FM221200 34006KT P6SM SCT060
     FM221400 34010G20KT P6SM FEW150=

USA.gov is the U.S. government's official web portal to all federal, state and local government web resources and services.